sensor_id;sensor_type;location;lat;lon;timestamp;pressure;altitude;pressure_sealevel;temperature;humidity
20037;BME280;10179;42.640;23.312;2023-03-01T00:01:55;94156.09;;;9.77;60.09
20037;BME280;10179;42.640;23.312;2023-03-01T00:04:21;94141.22;;;9.57;60.11
20037;BME280;10179;42.640;23.312;2023-03-01T00:06:46;94072.75;;;9.27;60.21
20037;BME280;10179;42.640;23.312;2023-03-01T00:09:13;94147.06;;;9.60;60.36
20037;BME280;10179;42.640;23.312;2023-03-01T00:11:39;94150.88;;;9.64;60.36
20037;BME280;10179;42.640;23.312;2023-03-01T00:14:04;94142.41;;;9.62;60.38
20037;BME280;10179;42.640;23.312;2023-03-01T00:16:32;94145.25;;;9.60;60.54
20037;BME280;10179;42.640;23.312;2023-03-01T00:19:02;94123.47;;;9.53;60.42
20037;BME280;10179;42.640;23.312;2023-03-01T00:21:28;94149.28;;;9.56;60.57
20037;BME280;10179;42.640;23.312;2023-03-01T00:23:54;94083.66;;;9.18;60.56
20037;BME280;10179;42.640;23.312;2023-03-01T00:26:22;94130.31;;;9.54;60.46
20037;BME280;10179;42.640;23.312;2023-03-01T00:28:48;94054.44;;;9.14;60.44
20037;BME280;10179;42.640;23.312;2023-03-01T00:31:17;94113.41;;;9.50;60.70
20037;BME280;10179;42.640;23.312;2023-03-01T00:33:43;94110.19;;;9.48;60.68
20037;BME280;10179;42.640;23.312;2023-03-01T00:36:11;94095.31;;;9.35;60.65
20037;BME280;10179;42.640;23.312;2023-03-01T00:38:41;94098.09;;;9.47;60.78
20037;BME280;10179;42.640;23.312;2023-03-01T00:41:10;94097.28;;;9.46;60.82
20037;BME280;10179;42.640;23.312;2023-03-01T00:43:36;94104.56;;;9.44;60.80
20037;BME280;10179;42.640;23.312;2023-03-01T00:46:16;94111.81;;;9.49;60.87
20037;BME280;10179;42.640;23.312;2023-03-01T00:48:41;94079.19;;;9.31;60.80
20037;BME280;10179;42.640;23.312;2023-03-01T00:51:09;94098.72;;;9.36;60.61
20037;BME280;10179;42.640;23.312;2023-03-01T00:53:35;94098.72;;;9.36;60.78
20037;BME280;10179;42.640;23.312;2023-03-01T00:56:02;94085.63;;;9.36;61.02
20037;BME280;10179;42.640;23.312;2023-03-01T00:58:28;94086.81;;;9.33;60.62
20037;BME280;10179;42.640;23.312;2023-03-01T01:00:53;94101.97;;;9.31;60.95
20037;BME280;10179;42.640;23.312;2023-03-01T01:03:19;94068.75;;;9.05;61.01
20037;BME280;10179;42.640;23.312;2023-03-01T01:05:45;94091.88;;;9.28;61.16
20037;BME280;10179;42.640;23.312;2023-03-01T01:08:11;94103.19;;;9.28;61.16
20037;BME280;10179;42.640;23.312;2023-03-01T01:10:36;94105.00;;;9.28;61.06
20037;BME280;10179;42.640;23.312;2023-03-01T01:13:02;94090.88;;;9.29;61.18
20037;BME280;10179;42.640;23.312;2023-03-01T01:15:27;94085.84;;;9.27;61.13
20037;BME280;10179;42.640;23.312;2023-03-01T01:17:53;94038.97;;;8.93;61.12
20037;BME280;10179;42.640;23.312;2023-03-01T01:20:18;94086.44;;;9.29;61.08
20037;BME280;10179;42.640;23.312;2023-03-01T01:22:44;94096.91;;;9.29;61.08
20037;BME280;10179;42.640;23.312;2023-03-01T01:25:09;94095.94;;;9.30;61.15
20037;BME280;10179;42.640;23.312;2023-03-01T01:27:35;94091.69;;;9.29;61.21
20037;BME280;10179;42.640;23.312;2023-03-01T01:30:01;94078.41;;;9.24;60.79
20037;BME280;10179;42.640;23.312;2023-03-01T01:32:26;94079.22;;;9.18;61.00
20037;BME280;10179;42.640;23.312;2023-03-01T01:34:52;94036.13;;;8.88;60.83
20037;BME280;10179;42.640;23.312;2023-03-01T01:37:17;94102.97;;;9.30;60.85
20037;BME280;10179;42.640;23.312;2023-03-01T01:39:43;94078.63;;;9.10;60.68
20037;BME280;10179;42.640;23.312;2023-03-01T01:42:15;94130.41;;;9.34;60.80
20037;BME280;10179;42.640;23.312;2023-03-01T01:44:42;94113.41;;;9.50;60.17
20037;BME280;10179;42.640;23.312;2023-03-01T01:47:13;94112.22;;;9.32;60.70
20037;BME280;10179;42.640;23.312;2023-03-01T01:49:43;94121.13;;;9.31;60.67
20037;BME280;10179;42.640;23.312;2023-03-01T01:52:31;94105.78;;;9.35;60.64
20037;BME280;10179;42.640;23.312;2023-03-01T01:57:40;94105.38;;;9.31;60.78
20037;BME280;10179;42.640;23.312;2023-03-01T02:02:39;94099.34;;;9.31;60.69
20037;BME280;10179;42.640;23.312;2023-03-01T02:07:52;94027.88;;;8.91;60.21
20037;BME280;10179;42.640;23.312;2023-03-01T02:10:19;94072.75;;;9.27;60.40
20037;BME280;10179;42.640;23.312;2023-03-01T02:12:46;94091.25;;;9.39;60.14
20037;BME280;10179;42.640;23.312;2023-03-01T02:15:11;94079.56;;;9.42;60.03
20037;BME280;10179;42.640;23.312;2023-03-01T02:17:37;94082.75;;;9.44;59.93
20037;BME280;10179;42.640;23.312;2023-03-01T02:22:38;94043.34;;;9.12;59.62
20037;BME280;10179;42.640;23.312;2023-03-01T02:25:11;94092.03;;;9.46;59.55
20037;BME280;10179;42.640;23.312;2023-03-01T02:27:50;94093.84;;;9.46;59.59
20037;BME280;10179;42.640;23.312;2023-03-01T02:30:20;94041.94;;;9.16;59.53
20037;BME280;10179;42.640;23.312;2023-03-01T02:32:47;94106.34;;;9.44;59.24
20037;BME280;10179;42.640;23.312;2023-03-01T02:35:16;94049.00;;;9.09;59.27
20037;BME280;10179;42.640;23.312;2023-03-01T02:37:43;94098.94;;;9.41;59.35
20037;BME280;10179;42.640;23.312;2023-03-01T02:40:17;94121.09;;;9.45;59.20
20037;BME280;10179;42.640;23.312;2023-03-01T02:42:53;94093.88;;;9.32;59.05
20037;BME280;10179;42.640;23.312;2023-03-01T02:45:20;94085.22;;;9.32;58.95
20037;BME280;10179;42.640;23.312;2023-03-01T02:47:45;94090.44;;;9.39;59.04
20037;BME280;10179;42.640;23.312;2023-03-01T02:50:19;94054.66;;;9.06;59.20
20037;BME280;10179;42.640;23.312;2023-03-01T02:52:59;94028.47;;;8.93;59.09
20037;BME280;10179;42.640;23.312;2023-03-01T02:55:25;94066.31;;;9.17;59.05
20037;BME280;10179;42.640;23.312;2023-03-01T02:57:53;94101.75;;;9.32;59.03
20037;BME280;10179;42.640;23.312;2023-03-01T03:00:26;94104.38;;;9.32;59.10
20037;BME280;10179;42.640;23.312;2023-03-01T03:02:53;94083.25;;;9.21;59.11
20037;BME280;10179;42.640;23.312;2023-03-01T03:05:22;94097.31;;;9.26;59.26
20037;BME280;10179;42.640;23.312;2023-03-01T03:07:48;94094.13;;;9.24;59.17
20037;BME280;10179;42.640;23.312;2023-03-01T03:10:25;94093.31;;;9.30;59.39
20037;BME280;10179;42.640;23.312;2023-03-01T03:13:00;94085.22;;;9.25;59.49
20037;BME280;10179;42.640;23.312;2023-03-01T03:15:27;94077.38;;;9.19;59.38
20037;BME280;10179;42.640;23.312;2023-03-01T03:17:53;94087.69;;;9.20;59.52
20037;BME280;10179;42.640;23.312;2023-03-01T03:20:21;94049.44;;;8.99;59.49
20037;BME280;10179;42.640;23.312;2023-03-01T03:22:49;94090.69;;;9.30;59.58
20037;BME280;10179;42.640;23.312;2023-03-01T03:25:17;94094.91;;;9.31;59.51
20037;BME280;10179;42.640;23.312;2023-03-01T03:27:44;94067.94;;;9.11;59.55
20037;BME280;10179;42.640;23.312;2023-03-01T03:30:12;94108.59;;;9.33;59.48
20037;BME280;10179;42.640;23.312;2023-03-01T03:32:40;94043.00;;;8.89;59.57
20037;BME280;10179;42.640;23.312;2023-03-01T03:35:07;94093.31;;;9.30;59.31
20037;BME280;10179;42.640;23.312;2023-03-01T03:37:38;94047.59;;;9.06;59.51
20037;BME280;10179;42.640;23.312;2023-03-01T03:40:23;94029.28;;;8.87;59.26
20037;BME280;10179;42.640;23.312;2023-03-01T03:42:48;94068.50;;;9.26;59.31
20037;BME280;10179;42.640;23.312;2023-03-01T03:45:15;94102.13;;;9.43;59.40
20037;BME280;10179;42.640;23.312;2023-03-01T03:47:41;94043.78;;;9.09;59.07
20037;BME280;10179;42.640;23.312;2023-03-01T03:50:08;94101.75;;;9.39;59.34
20037;BME280;10179;42.640;23.312;2023-03-01T03:52:34;94112.22;;;9.39;59.20
20037;BME280;10179;42.640;23.312;2023-03-01T03:54:59;94108.19;;;9.37;59.34
20037;BME280;10179;42.640;23.312;2023-03-01T03:57:43;94111.41;;;9.45;59.10
20037;BME280;10179;42.640;23.312;2023-03-01T04:00:11;94106.59;;;9.36;59.26
20037;BME280;10179;42.640;23.312;2023-03-01T04:02:40;94095.50;;;9.33;59.10
20037;BME280;10179;42.640;23.312;2023-03-01T04:05:07;94098.09;;;9.33;59.35
20037;BME280;10179;42.640;23.312;2023-03-01T04:07:37;94023.66;;;8.76;59.15
20037;BME280;10179;42.640;23.312;2023-03-01T04:10:04;94106.19;;;9.32;58.93
20037;BME280;10179;42.640;23.312;2023-03-01T04:12:30;94099.34;;;9.24;58.99
20037;BME280;10179;42.640;23.312;2023-03-01T04:14:55;94112.84;;;9.28;58.97
20037;BME280;10179;42.640;23.312;2023-03-01T04:17:21;94110.25;;;9.28;59.02
20037;BME280;10179;42.640;23.312;2023-03-01T04:19:46;94113.03;;;9.26;58.99
20037;BME280;10179;42.640;23.312;2023-03-01T04:22:14;94112.25;;;9.26;59.03
20037;BME280;10179;42.640;23.312;2023-03-01T04:24:42;94113.03;;;9.26;58.96
20037;BME280;10179;42.640;23.312;2023-03-01T04:27:08;94101.75;;;9.26;59.11
20037;BME280;10179;42.640;23.312;2023-03-01T04:29:34;94113.03;;;9.26;58.96
20037;BME280;10179;42.640;23.312;2023-03-01T04:31:59;94121.13;;;9.25;58.98
20037;BME280;10179;42.640;23.312;2023-03-01T04:34:25;94115.09;;;9.24;58.96
20037;BME280;10179;42.640;23.312;2023-03-01T04:36:52;94111.84;;;9.22;59.10
20037;BME280;10179;42.640;23.312;2023-03-01T04:39:18;94084.47;;;9.12;59.21
20037;BME280;10179;42.640;23.312;2023-03-01T04:41:43;94041.41;;;8.74;59.10
20037;BME280;10179;42.640;23.312;2023-03-01T04:44:09;94076.44;;;9.00;59.25
20037;BME280;10179;42.640;23.312;2023-03-01T04:46:35;94112.47;;;9.18;59.23
20037;BME280;10179;42.640;23.312;2023-03-01T04:49:02;94109.06;;;9.17;59.15
20037;BME280;10179;42.640;23.312;2023-03-01T04:51:28;94102.22;;;9.16;59.21
20037;BME280;10179;42.640;23.312;2023-03-01T04:53:53;94095.16;;;9.17;59.31
20037;BME280;10179;42.640;23.312;2023-03-01T04:56:18;94098.56;;;9.17;59.45
20037;BME280;10179;42.640;23.312;2023-03-01T04:58:44;94097.56;;;9.18;59.25
20037;BME280;10179;42.640;23.312;2023-03-01T05:01:12;94075.22;;;9.09;59.45
20037;BME280;10179;42.640;23.312;2023-03-01T05:03:44;94098.16;;;9.20;59.43
20037;BME280;10179;42.640;23.312;2023-03-01T05:06:11;94107.44;;;9.16;59.46
20037;BME280;10179;42.640;23.312;2023-03-01T05:08:38;94110.66;;;9.18;59.35
20037;BME280;10179;42.640;23.312;2023-03-01T05:11:04;94088.09;;;9.17;59.32
20037;BME280;10179;42.640;23.312;2023-03-01T05:13:30;94079.22;;;8.98;59.41
20037;BME280;10179;42.640;23.312;2023-03-01T05:15:59;94104.63;;;9.18;59.68
20037;BME280;10179;42.640;23.312;2023-03-01T05:18:27;94084.47;;;9.12;59.48
20037;BME280;10179;42.640;23.312;2023-03-01T05:21:01;94101.59;;;9.21;59.48
20037;BME280;10179;42.640;23.312;2023-03-01T05:23:28;94094.94;;;9.18;59.52
20037;BME280;10179;42.640;23.312;2023-03-01T05:25:53;94099.16;;;9.19;59.55
20037;BME280;10179;42.640;23.312;2023-03-01T05:28:20;94106.03;;;9.20;59.50
20037;BME280;10179;42.640;23.312;2023-03-01T05:30:46;94050.66;;;8.83;59.52
20037;BME280;10179;42.640;23.312;2023-03-01T05:33:12;94078.41;;;9.11;59.47
20037;BME280;10179;42.640;23.312;2023-03-01T05:35:42;94030.09;;;8.80;59.19
20037;BME280;10179;42.640;23.312;2023-03-01T05:38:08;94089.28;;;9.21;59.34
20037;BME280;10179;42.640;23.312;2023-03-01T05:40:38;94093.31;;;9.30;58.99
20037;BME280;10179;42.640;23.312;2023-03-01T05:43:04;94096.50;;;9.32;59.19
20037;BME280;10179;42.640;23.312;2023-03-01T05:45:30;94104.97;;;9.35;58.94
20037;BME280;10179;42.640;23.312;2023-03-01T05:47:58;94105.56;;;9.37;58.72
20037;BME280;10179;42.640;23.312;2023-03-01T05:50:29;94060.69;;;9.20;58.80
20037;BME280;10179;42.640;23.312;2023-03-01T05:55:28;94119.47;;;9.44;58.34
20037;BME280;10179;42.640;23.312;2023-03-01T05:57:54;94052.84;;;9.00;58.24
20037;BME280;10179;42.640;23.312;2023-03-01T06:00:20;94122.09;;;9.44;58.27
20037;BME280;10179;42.640;23.312;2023-03-01T06:02:49;94107.78;;;9.40;58.14
20037;BME280;10179;42.640;23.312;2023-03-01T06:05:14;94057.69;;;9.10;58.04
20037;BME280;10179;42.640;23.312;2023-03-01T06:07:40;94140.00;;;9.53;57.98
20037;BME280;10179;42.640;23.312;2023-03-01T06:10:08;94130.31;;;9.54;57.73
20037;BME280;10179;42.640;23.312;2023-03-01T06:12:35;94137.19;;;9.55;57.76
20037;BME280;10179;42.640;23.312;2023-03-01T06:15:01;94133.34;;;9.57;57.60
20037;BME280;10179;42.640;23.312;2023-03-01T06:17:29;94134.38;;;9.56;57.23
20037;BME280;10179;42.640;23.312;2023-03-01T06:19:55;94145.25;;;9.60;57.16
20037;BME280;10179;42.640;23.312;2023-03-01T06:22:20;94130.31;;;9.54;57.07
20037;BME280;10179;42.640;23.312;2023-03-01T06:24:46;94105.38;;;9.31;57.06
20037;BME280;10179;42.640;23.312;2023-03-01T06:27:11;94133.16;;;9.59;56.89
20037;BME280;10179;42.640;23.312;2023-03-01T06:29:36;94141.03;;;9.59;56.98
20037;BME280;10179;42.640;23.312;2023-03-01T06:32:03;94115.25;;;9.43;56.98
20037;BME280;10179;42.640;23.312;2023-03-01T06:34:29;94130.72;;;9.51;56.80
20037;BME280;10179;42.640;23.312;2023-03-01T06:36:54;94135.56;;;9.54;56.62
20037;BME280;10179;42.640;23.312;2023-03-01T06:39:19;94135.16;;;9.57;56.69
20037;BME280;10179;42.640;23.312;2023-03-01T06:41:45;94151.69;;;9.64;56.75
20037;BME280;10179;42.640;23.312;2023-03-01T06:44:10;94124.69;;;9.50;56.42
20037;BME280;10179;42.640;23.312;2023-03-01T06:46:36;94143.63;;;9.66;56.33
20037;BME280;10179;42.640;23.312;2023-03-01T06:49:02;94155.94;;;9.65;56.58
20037;BME280;10179;42.640;23.312;2023-03-01T06:51:29;94144.03;;;9.69;56.32
20037;BME280;10179;42.640;23.312;2023-03-01T06:53:55;94120.84;;;9.53;56.12
20037;BME280;10179;42.640;23.312;2023-03-01T06:56:20;94146.41;;;9.71;55.92
20037;BME280;10179;42.640;23.312;2023-03-01T06:58:46;94148.03;;;9.72;55.86
20037;BME280;10179;42.640;23.312;2023-03-01T07:01:11;94080.19;;;9.30;55.54
20037;BME280;10179;42.640;23.312;2023-03-01T07:03:37;94144.84;;;9.63;55.79
20037;BME280;10179;42.640;23.312;2023-03-01T07:06:02;94143.00;;;9.70;55.69
20037;BME280;10179;42.640;23.312;2023-03-01T07:08:27;94149.25;;;9.69;55.59
20037;BME280;10179;42.640;23.312;2023-03-01T07:10:57;94149.66;;;9.73;55.61
20037;BME280;10179;42.640;23.312;2023-03-01T07:13:22;94146.63;;;9.69;55.64
20037;BME280;10179;42.640;23.312;2023-03-01T07:15:48;94135.94;;;9.71;55.74
20037;BME280;10179;42.640;23.312;2023-03-01T07:18:13;94141.56;;;9.74;55.72
20037;BME280;10179;42.640;23.312;2023-03-01T07:20:39;94136.72;;;9.78;55.71
20037;BME280;10179;42.640;23.312;2023-03-01T07:23:05;94154.88;;;9.79;55.68
20037;BME280;10179;42.640;23.312;2023-03-01T07:25:31;94108.69;;;9.72;55.70
20037;BME280;10179;42.640;23.312;2023-03-01T07:27:57;94137.88;;;9.89;55.50
20037;BME280;10179;42.640;23.312;2023-03-01T07:30:23;94145.16;;;9.87;55.52
20037;BME280;10179;42.640;23.312;2023-03-01T07:32:51;94145.16;;;9.93;55.64
20037;BME280;10179;42.640;23.312;2023-03-01T07:35:17;94132.41;;;9.97;55.31
20037;BME280;10179;42.640;23.312;2023-03-01T07:37:42;94141.25;;;10.02;55.34
20037;BME280;10179;42.640;23.312;2023-03-01T07:40:08;94123.69;;;10.03;55.34
20037;BME280;10179;42.640;23.312;2023-03-01T07:42:34;94112.41;;;9.96;55.01
20037;BME280;10179;42.640;23.312;2023-03-01T07:44:59;94116.78;;;10.15;54.81
20037;BME280;10179;42.640;23.312;2023-03-01T07:47:25;94129.88;;;10.29;54.33
20037;BME280;10179;42.640;23.312;2023-03-01T07:49:50;94121.53;;;10.32;54.06
20037;BME280;10179;42.640;23.312;2023-03-01T07:52:15;94071.44;;;10.01;53.97
20037;BME280;10179;42.640;23.312;2023-03-01T07:54:42;94119.91;;;10.37;53.80
20037;BME280;10179;42.640;23.312;2023-03-01T07:57:09;94126.19;;;10.36;53.55
20037;BME280;10179;42.640;23.312;2023-03-01T07:59:34;94116.28;;;10.32;53.64
20037;BME280;10179;42.640;23.312;2023-03-01T08:02:00;94046.41;;;9.99;53.38
20037;BME280;10179;42.640;23.312;2023-03-01T08:04:25;94075.19;;;10.12;53.18
20037;BME280;10179;42.640;23.312;2023-03-01T08:06:52;94125.78;;;10.33;53.04
20037;BME280;10179;42.640;23.312;2023-03-01T08:09:18;94088.59;;;10.04;53.05
20037;BME280;10179;42.640;23.312;2023-03-01T08:11:43;94081.31;;;9.99;53.00
20037;BME280;10179;42.640;23.312;2023-03-01T08:14:08;94130.63;;;10.36;52.68
20037;BME280;10179;42.640;23.312;2023-03-01T08:16:35;94123.19;;;10.33;52.69
20037;BME280;10179;42.640;23.312;2023-03-01T08:19:09;94114.88;;;10.36;52.98
20037;BME280;10179;42.640;23.312;2023-03-01T08:21:34;94126.78;;;10.32;53.01
20037;BME280;10179;42.640;23.312;2023-03-01T08:24:01;94112.06;;;10.31;53.19
20037;BME280;10179;42.640;23.312;2023-03-01T08:26:27;94119.31;;;10.35;53.08
20037;BME280;10179;42.640;23.312;2023-03-01T08:28:52;94123.34;;;10.38;53.21
20037;BME280;10179;42.640;23.312;2023-03-01T08:31:25;94116.84;;;10.40;53.03
20037;BME280;10179;42.640;23.312;2023-03-01T08:33:54;94123.72;;;10.41;53.01
20037;BME280;10179;42.640;23.312;2023-03-01T08:36:24;94119.69;;;10.39;52.99
20037;BME280;10179;42.640;23.312;2023-03-01T08:38:50;94073.59;;;10.11;53.03
20037;BME280;10179;42.640;23.312;2023-03-01T08:41:16;94032.53;;;9.92;52.91
20037;BME280;10179;42.640;23.312;2023-03-01T08:43:41;94139.44;;;10.48;52.78
20037;BME280;10179;42.640;23.312;2023-03-01T08:46:07;94061.91;;;10.07;52.60
20037;BME280;10179;42.640;23.312;2023-03-01T08:48:32;94113.34;;;10.53;52.68
20037;BME280;10179;42.640;23.312;2023-03-01T08:51:07;94072.69;;;10.24;52.76
20037;BME280;10179;42.640;23.312;2023-03-01T08:53:33;94064.84;;;10.17;52.66
20037;BME280;10179;42.640;23.312;2023-03-01T08:56:02;94098.41;;;10.54;52.58
20037;BME280;10179;42.640;23.312;2023-03-01T08:58:28;94107.22;;;10.59;52.50
20037;BME280;10179;42.640;23.312;2023-03-01T09:00:54;94120.44;;;10.78;52.34
20037;BME280;10179;42.640;23.312;2023-03-01T09:03:22;94114.75;;;10.81;52.19
20037;BME280;10179;42.640;23.312;2023-03-01T09:05:47;94110.69;;;10.85;52.02
20037;BME280;10179;42.640;23.312;2023-03-01T09:08:14;93994.50;;;10.08;51.60
20037;BME280;10179;42.640;23.312;2023-03-01T09:10:39;94110.41;;;10.93;51.59
20037;BME280;10179;42.640;23.312;2023-03-01T09:13:05;94061.81;;;10.52;51.35
20037;BME280;10179;42.640;23.312;2023-03-01T09:15:30;93944.94;;;9.93;51.54
20037;BME280;10179;42.640;23.312;2023-03-01T09:17:56;94115.88;;;10.91;51.47
20037;BME280;10179;42.640;23.312;2023-03-01T09:20:21;94093.78;;;10.99;51.26
20037;BME280;10179;42.640;23.312;2023-03-01T09:22:47;94110.41;;;11.18;51.38
20037;BME280;10179;42.640;23.312;2023-03-01T09:25:12;94109.53;;;11.24;51.11
20037;BME280;10179;42.640;23.312;2023-03-01T09:27:37;94104.91;;;11.19;50.77
20037;BME280;10179;42.640;23.312;2023-03-01T09:30:04;94109.91;;;11.28;50.55
20037;BME280;10179;42.640;23.312;2023-03-01T09:32:30;94112.72;;;11.26;50.82
20037;BME280;10179;42.640;23.312;2023-03-01T09:34:56;94101.78;;;11.29;50.70
20037;BME280;10179;42.640;23.312;2023-03-01T09:37:35;94102.16;;;11.33;50.67
20037;BME280;10179;42.640;23.312;2023-03-01T09:40:01;94097.91;;;11.32;50.84
20037;BME280;10179;42.640;23.312;2023-03-01T09:42:29;94073.66;;;11.11;50.74
20037;BME280;10179;42.640;23.312;2023-03-01T09:45:23;94106.06;;;11.49;50.31
20037;BME280;10179;42.640;23.312;2023-03-01T09:47:50;94093.69;;;11.31;50.34
20037;BME280;10179;42.640;23.312;2023-03-01T09:50:20;94108.16;;;11.40;50.64
20037;BME280;10179;42.640;23.312;2023-03-01T09:53:19;94095.91;;;11.52;50.07
20037;BME280;10179;42.640;23.312;2023-03-01T09:55:52;94055.97;;;11.18;50.58
20037;BME280;10179;42.640;23.312;2023-03-01T10:04:22;94087.34;;;11.57;50.31
20037;BME280;10179;42.640;23.312;2023-03-01T10:06:45;94072.84;;;11.47;50.43
20037;BME280;10179;42.640;23.312;2023-03-01T10:09:17;94083.75;;;11.51;50.26
20037;BME280;10179;42.640;23.312;2023-03-01T10:11:46;94032.91;;;11.20;50.00
20037;BME280;10179;42.640;23.312;2023-03-01T10:17:03;94082.59;;;11.47;50.22
20037;BME280;10179;42.640;23.312;2023-03-01T10:22:16;94087.41;;;11.50;50.59
20037;BME280;10179;42.640;23.312;2023-03-01T10:24:44;94025.41;;;11.06;50.60
20037;BME280;10179;42.640;23.312;2023-03-01T10:29:48;94006.16;;;11.05;50.88
20037;BME280;10179;42.640;23.312;2023-03-01T10:32:17;94009.53;;;11.12;50.85
20037;BME280;10179;42.640;23.312;2023-03-01T10:34:42;94071.06;;;11.48;50.80
20037;BME280;10179;42.640;23.312;2023-03-01T10:37:19;94053.38;;;11.55;50.59
20037;BME280;10179;42.640;23.312;2023-03-01T10:40:07;94052.94;;;11.58;50.72
20037;BME280;10179;42.640;23.312;2023-03-01T10:42:54;94038.09;;;11.45;50.86
20037;BME280;10179;42.640;23.312;2023-03-01T10:45:36;94049.56;;;11.51;50.76
20037;BME280;10179;42.640;23.312;2023-03-01T10:50:32;94051.03;;;11.47;50.84
20037;BME280;10179;42.640;23.312;2023-03-01T10:53:02;94067.31;;;11.56;50.58
20037;BME280;10179;42.640;23.312;2023-03-01T10:55:38;94039.78;;;11.58;50.77
20037;BME280;10179;42.640;23.312;2023-03-01T10:58:20;94045.91;;;11.70;50.74
20037;BME280;10179;42.640;23.312;2023-03-01T11:00:53;94057.00;;;11.73;50.67
20037;BME280;10179;42.640;23.312;2023-03-01T11:03:23;93986.59;;;11.19;50.55
20037;BME280;10179;42.640;23.312;2023-03-01T11:08:45;94058.59;;;11.74;50.72
20037;BME280;10179;42.640;23.312;2023-03-01T11:13:55;94006.91;;;11.49;50.36
20037;BME280;10179;42.640;23.312;2023-03-01T11:16:25;94059.53;;;11.79;50.05
20037;BME280;10179;42.640;23.312;2023-03-01T11:18:59;94068.25;;;11.80;49.86
20037;BME280;10179;42.640;23.312;2023-03-01T11:21:28;94062.41;;;11.78;50.12
20037;BME280;10179;42.640;23.312;2023-03-01T11:23:54;94057.56;;;11.75;50.03
20037;BME280;10179;42.640;23.312;2023-03-01T11:26:21;94057.56;;;11.75;49.97
20037;BME280;10179;42.640;23.312;2023-03-01T11:28:51;94016.53;;;11.55;50.15
20037;BME280;10179;42.640;23.312;2023-03-01T11:31:18;94018.16;;;11.56;49.96
20037;BME280;10179;42.640;23.312;2023-03-01T11:34:20;94048.97;;;11.86;49.88
20037;BME280;10179;42.640;23.312;2023-03-01T11:36:52;94024.94;;;11.64;50.21
20037;BME280;10179;42.640;23.312;2023-03-01T11:42:06;94030.38;;;11.81;50.14
20037;BME280;10179;42.640;23.312;2023-03-01T11:44:36;94028.28;;;11.71;49.94
20037;BME280;10179;42.640;23.312;2023-03-01T11:47:18;94038.44;;;11.86;49.50
20037;BME280;10179;42.640;23.312;2023-03-01T11:55:54;94021.41;;;11.70;50.14
20037;BME280;10179;42.640;23.312;2023-03-01T12:20:35;94001.50;;;11.92;50.48
20037;BME280;10179;42.640;23.312;2023-03-01T12:37:24;93990.03;;;12.29;49.58
20037;BME280;10179;42.640;23.312;2023-03-01T12:40:33;93986.38;;;12.30;49.52
20037;BME280;10179;42.640;23.312;2023-03-01T12:48:33;94001.53;;;12.46;48.98
20037;BME280;10179;42.640;23.312;2023-03-01T12:51:06;93807.41;;;11.22;48.75
20037;BME280;10179;42.640;23.312;2023-03-01T12:53:40;93988.81;;;12.43;49.21
20037;BME280;10179;42.640;23.312;2023-03-01T12:56:09;93928.28;;;12.01;49.12
20037;BME280;10179;42.640;23.312;2023-03-01T12:58:50;93983.66;;;12.48;48.94
20037;BME280;10179;42.640;23.312;2023-03-01T13:09:43;93973.31;;;12.35;49.17
20037;BME280;10179;42.640;23.312;2023-03-01T13:17:49;93998.91;;;12.46;49.03
20037;BME280;10179;42.640;23.312;2023-03-01T13:20:17;93989.72;;;12.49;48.92
20037;BME280;10179;42.640;23.312;2023-03-01T13:22:46;93993.38;;;12.48;48.79
20037;BME280;10179;42.640;23.312;2023-03-01T13:25:18;93987.66;;;12.51;48.91
20037;BME280;10179;42.640;23.312;2023-03-01T13:27:45;93936.44;;;12.11;48.79
20037;BME280;10179;42.640;23.312;2023-03-01T13:35:54;93903.66;;;11.84;49.09
20037;BME280;10179;42.640;23.312;2023-03-01T13:38:47;93991.09;;;12.39;49.37
20037;BME280;10179;42.640;23.312;2023-03-01T13:41:15;93986.25;;;12.25;49.35
20037;BME280;10179;42.640;23.312;2023-03-01T13:43:43;93994.47;;;12.16;49.35
20037;BME280;10179;42.640;23.312;2023-03-01T13:46:21;93941.66;;;11.88;49.76
20037;BME280;10179;42.640;23.312;2023-03-01T13:48:54;93988.66;;;12.14;50.05
20037;BME280;10179;42.640;23.312;2023-03-01T13:51:24;93952.31;;;11.75;49.93
20037;BME280;10179;42.640;23.312;2023-03-01T13:53:51;93937.44;;;11.68;49.61
20037;BME280;10179;42.640;23.312;2023-03-01T13:56:28;93975.69;;;12.01;50.26
20037;BME280;10179;42.640;23.312;2023-03-01T13:59:01;93980.44;;;11.92;50.17
20037;BME280;10179;42.640;23.312;2023-03-01T14:01:35;93973.50;;;11.98;50.13
20037;BME280;10179;42.640;23.312;2023-03-01T14:04:02;93980.44;;;11.92;50.18
20037;BME280;10179;42.640;23.312;2023-03-01T14:06:33;93974.81;;;11.89;50.34
20037;BME280;10179;42.640;23.312;2023-03-01T14:09:10;93977.25;;;11.90;50.63
20037;BME280;10179;42.640;23.312;2023-03-01T14:19:30;93935.28;;;11.47;50.60
20037;BME280;10179;42.640;23.312;2023-03-01T14:22:25;93983.16;;;11.86;50.69
20037;BME280;10179;42.640;23.312;2023-03-01T14:25:00;93988.28;;;11.81;50.76
20037;BME280;10179;42.640;23.312;2023-03-01T14:27:29;93973.97;;;11.77;50.95
20037;BME280;10179;42.640;23.312;2023-03-01T14:30:02;93946.59;;;11.66;51.33
20037;BME280;10179;42.640;23.312;2023-03-01T14:32:30;93969.25;;;11.79;51.24
20037;BME280;10179;42.640;23.312;2023-03-01T14:34:57;93955.63;;;11.70;51.19
20037;BME280;10179;42.640;23.312;2023-03-01T14:37:28;93974.88;;;11.82;51.35
20037;BME280;10179;42.640;23.312;2023-03-01T14:39:55;93964.00;;;11.79;51.24
20037;BME280;10179;42.640;23.312;2023-03-01T14:42:22;93906.25;;;11.42;51.35
20037;BME280;10179;42.640;23.312;2023-03-01T14:44:50;93952.22;;;11.69;51.45
20037;BME280;10179;42.640;23.312;2023-03-01T14:49:56;93954.47;;;11.66;51.38
20037;BME280;10179;42.640;23.312;2023-03-01T14:52:28;93907.00;;;11.31;51.46
20037;BME280;10179;42.640;23.312;2023-03-01T14:54:56;93966.25;;;11.63;51.37
20037;BME280;10179;42.640;23.312;2023-03-01T14:57:24;93973.91;;;11.65;51.51
20037;BME280;10179;42.640;23.312;2023-03-01T14:59:52;93968.75;;;11.58;51.77